sensor_id;sensor_type;location;lat;lon;timestamp;P1;durP1;ratioP1;P2;durP2;ratioP2
3193;SDS011;1608;50.860;13.466;2023-04-25T00:01:26;8.27;;;5.53;;
3193;SDS011;1608;50.860;13.466;2023-04-25T00:03:53;12.20;;;5.70;;
3193;SDS011;1608;50.860;13.466;2023-04-25T00:06:22;10.73;;;6.13;;
3193;SDS011;1608;50.860;13.466;2023-04-25T00:08:51;8.43;;;5.53;;
3193;SDS011;1608;50.860;13.466;2023-04-25T00:11:18;9.67;;;7.37;;
3193;SDS011;1608;50.860;13.466;2023-04-25T00:13:45;8.70;;;6.67;;
3193;SDS011;1608;50.860;13.466;2023-04-25T00:16:13;8.70;;;6.23;;
3193;SDS011;1608;50.860;13.466;2023-04-25T00:18:41;8.47;;;5.70;;
3193;SDS011;1608;50.860;13.466;2023-04-25T00:21:07;9.80;;;5.63;;
3193;SDS011;1608;50.860;13.466;2023-04-25T00:23:36;10.50;;;6.10;;
3193;SDS011;1608;50.860;13.466;2023-04-25T00:26:03;9.67;;;5.93;;
3193;SDS011;1608;50.860;13.466;2023-04-25T00:28:30;11.20;;;5.83;;
3193;SDS011;1608;50.860;13.466;2023-04-25T00:30:57;10.97;;;6.60;;
3193;SDS011;1608;50.860;13.466;2023-04-25T00:33:24;11.17;;;6.67;;
3193;SDS011;1608;50.860;13.466;2023-04-25T00:35:51;9.90;;;6.40;;
3193;SDS011;1608;50.860;13.466;2023-04-25T00:38:18;11.23;;;6.07;;
3193;SDS011;1608;50.860;13.466;2023-04-25T00:40:46;14.17;;;7.10;;
3193;SDS011;1608;50.860;13.466;2023-04-25T00:43:13;14.77;;;7.70;;
3193;SDS011;1608;50.860;13.466;2023-04-25T00:45:40;7.47;;;5.50;;
3193;SDS011;1608;50.860;13.466;2023-04-25T00:48:09;9.80;;;6.07;;
3193;SDS011;1608;50.860;13.466;2023-04-25T00:50:36;10.20;;;6.00;;
3193;SDS011;1608;50.860;13.466;2023-04-25T00:53:03;10.73;;;6.70;;
3193;SDS011;1608;50.860;13.466;2023-04-25T00:55:30;8.80;;;6.63;;
3193;SDS011;1608;50.860;13.466;2023-04-25T00:58:01;7.70;;;6.33;;
3193;SDS011;1608;50.860;13.466;2023-04-25T01:00:27;9.20;;;6.93;;
3193;SDS011;1608;50.860;13.466;2023-04-25T01:02:55;9.07;;;6.43;;
3193;SDS011;1608;50.860;13.466;2023-04-25T01:05:22;10.00;;;6.73;;
3193;SDS011;1608;50.860;13.466;2023-04-25T01:07:48;12.80;;;7.50;;
3193;SDS011;1608;50.860;13.466;2023-04-25T01:10:15;13.87;;;6.90;;
3193;SDS011;1608;50.860;13.466;2023-04-25T01:12:42;12.80;;;7.10;;
3193;SDS011;1608;50.860;13.466;2023-04-25T01:15:11;13.03;;;7.47;;
3193;SDS011;1608;50.860;13.466;2023-04-25T01:17:37;10.40;;;7.13;;
3193;SDS011;1608;50.860;13.466;2023-04-25T01:20:06;11.17;;;6.07;;
3193;SDS011;1608;50.860;13.466;2023-04-25T01:22:36;10.27;;;7.00;;
3193;SDS011;1608;50.860;13.466;2023-04-25T01:25:04;9.27;;;6.17;;
3193;SDS011;1608;50.860;13.466;2023-04-25T01:27:31;9.93;;;6.47;;
3193;SDS011;1608;50.860;13.466;2023-04-25T01:29:58;10.53;;;6.77;;
3193;SDS011;1608;50.860;13.466;2023-04-25T01:32:26;13.93;;;6.67;;
3193;SDS011;1608;50.860;13.466;2023-04-25T01:34:53;14.07;;;6.40;;
3193;SDS011;1608;50.860;13.466;2023-04-25T01:37:19;13.80;;;6.77;;
3193;SDS011;1608;50.860;13.466;2023-04-25T01:39:48;8.50;;;6.30;;
3193;SDS011;1608;50.860;13.466;2023-04-25T01:42:15;14.43;;;7.20;;
3193;SDS011;1608;50.860;13.466;2023-04-25T01:44:42;10.00;;;7.23;;
3193;SDS011;1608;50.860;13.466;2023-04-25T01:47:09;18.20;;;7.23;;
3193;SDS011;1608;50.860;13.466;2023-04-25T01:49:36;12.53;;;6.77;;
3193;SDS011;1608;50.860;13.466;2023-04-25T01:52:03;20.87;;;8.23;;
3193;SDS011;1608;50.860;13.466;2023-04-25T01:54:30;12.00;;;6.33;;
3193;SDS011;1608;50.860;13.466;2023-04-25T01:56:58;10.87;;;6.57;;
3193;SDS011;1608;50.860;13.466;2023-04-25T01:59:25;9.97;;;7.17;;
3193;SDS011;1608;50.860;13.466;2023-04-25T02:01:52;12.10;;;7.70;;
3193;SDS011;1608;50.860;13.466;2023-04-25T02:04:19;12.60;;;7.40;;
3193;SDS011;1608;50.860;13.466;2023-04-25T02:06:45;12.53;;;7.80;;
3193;SDS011;1608;50.860;13.466;2023-04-25T02:09:12;13.43;;;8.47;;
3193;SDS011;1608;50.860;13.466;2023-04-25T02:11:39;12.87;;;8.43;;
3193;SDS011;1608;50.860;13.466;2023-04-25T02:14:07;9.93;;;7.57;;
3193;SDS011;1608;50.860;13.466;2023-04-25T02:16:34;13.10;;;7.90;;
3193;SDS011;1608;50.860;13.466;2023-04-25T02:19:02;11.60;;;7.43;;
3193;SDS011;1608;50.860;13.466;2023-04-25T02:21:29;11.07;;;7.90;;
3193;SDS011;1608;50.860;13.466;2023-04-25T02:23:55;11.97;;;7.60;;
3193;SDS011;1608;50.860;13.466;2023-04-25T02:26:23;12.33;;;7.03;;
3193;SDS011;1608;50.860;13.466;2023-04-25T02:28:50;11.87;;;7.23;;
3193;SDS011;1608;50.860;13.466;2023-04-25T02:31:18;18.50;;;8.50;;
3193;SDS011;1608;50.860;13.466;2023-04-25T02:33:45;13.00;;;6.80;;
3193;SDS011;1608;50.860;13.466;2023-04-25T02:36:12;11.60;;;6.33;;
3193;SDS011;1608;50.860;13.466;2023-04-25T02:38:40;13.47;;;7.90;;
3193;SDS011;1608;50.860;13.466;2023-04-25T02:41:06;11.00;;;7.00;;
3193;SDS011;1608;50.860;13.466;2023-04-25T02:43:33;12.80;;;7.33;;
3193;SDS011;1608;50.860;13.466;2023-04-25T02:46:00;12.90;;;7.73;;
3193;SDS011;1608;50.860;13.466;2023-04-25T02:48:28;14.70;;;8.57;;
3193;SDS011;1608;50.860;13.466;2023-04-25T02:50:55;13.77;;;8.60;;
3193;SDS011;1608;50.860;13.466;2023-04-25T02:53:22;11.13;;;7.67;;
3193;SDS011;1608;50.860;13.466;2023-04-25T02:55:49;10.97;;;7.60;;
3193;SDS011;1608;50.860;13.466;2023-04-25T02:58:17;12.90;;;7.57;;
3193;SDS011;1608;50.860;13.466;2023-04-25T03:00:44;11.33;;;7.03;;
3193;SDS011;1608;50.860;13.466;2023-04-25T03:03:11;22.23;;;10.13;;
3193;SDS011;1608;50.860;13.466;2023-04-25T03:05:39;16.40;;;7.87;;
3193;SDS011;1608;50.860;13.466;2023-04-25T03:08:06;18.30;;;7.30;;
3193;SDS011;1608;50.860;13.466;2023-04-25T03:10:33;17.63;;;8.33;;
3193;SDS011;1608;50.860;13.466;2023-04-25T03:12:59;15.63;;;8.60;;
3193;SDS011;1608;50.860;13.466;2023-04-25T03:15:26;18.30;;;8.33;;
3193;SDS011;1608;50.860;13.466;2023-04-25T03:17:53;11.20;;;7.07;;
3193;SDS011;1608;50.860;13.466;2023-04-25T03:20:20;16.63;;;8.43;;
3193;SDS011;1608;50.860;13.466;2023-04-25T03:22:48;17.10;;;8.57;;
3193;SDS011;1608;50.860;13.466;2023-04-25T03:25:15;16.70;;;8.10;;
3193;SDS011;1608;50.860;13.466;2023-04-25T03:27:42;13.83;;;7.27;;
3193;SDS011;1608;50.860;13.466;2023-04-25T03:30:09;12.37;;;8.37;;
3193;SDS011;1608;50.860;13.466;2023-04-25T03:32:36;17.03;;;8.97;;
3193;SDS011;1608;50.860;13.466;2023-04-25T03:35:03;14.57;;;8.67;;
3193;SDS011;1608;50.860;13.466;2023-04-25T03:37:31;12.07;;;8.10;;
3193;SDS011;1608;50.860;13.466;2023-04-25T03:39:59;14.20;;;8.30;;
3193;SDS011;1608;50.860;13.466;2023-04-25T03:42:26;14.80;;;8.83;;
3193;SDS011;1608;50.860;13.466;2023-04-25T03:44:53;10.97;;;7.50;;
3193;SDS011;1608;50.860;13.466;2023-04-25T03:47:19;18.80;;;7.40;;
3193;SDS011;1608;50.860;13.466;2023-04-25T03:49:46;15.00;;;9.20;;
3193;SDS011;1608;50.860;13.466;2023-04-25T03:52:14;18.73;;;7.90;;
3193;SDS011;1608;50.860;13.466;2023-04-25T03:54:41;12.17;;;7.70;;
3193;SDS011;1608;50.860;13.466;2023-04-25T03:57:09;11.47;;;7.60;;
3193;SDS011;1608;50.860;13.466;2023-04-25T03:59:36;11.73;;;7.93;;
3193;SDS011;1608;50.860;13.466;2023-04-25T04:02:03;12.70;;;6.80;;
3193;SDS011;1608;50.860;13.466;2023-04-25T04:04:30;12.47;;;8.53;;
3193;SDS011;1608;50.860;13.466;2023-04-25T04:06:56;14.17;;;9.07;;
3193;SDS011;1608;50.860;13.466;2023-04-25T04:09:23;14.30;;;8.00;;
3193;SDS011;1608;50.860;13.466;2023-04-25T04:11:50;12.83;;;7.10;;
3193;SDS011;1608;50.860;13.466;2023-04-25T04:14:19;10.63;;;8.13;;
3193;SDS011;1608;50.860;13.466;2023-04-25T04:16:45;11.13;;;7.83;;
3193;SDS011;1608;50.860;13.466;2023-04-25T04:19:12;15.03;;;8.87;;
3193;SDS011;1608;50.860;13.466;2023-04-25T04:21:39;14.17;;;7.97;;
3193;SDS011;1608;50.860;13.466;2023-04-25T04:24:06;12.60;;;6.80;;
3193;SDS011;1608;50.860;13.466;2023-04-25T04:26:33;12.70;;;7.97;;
3193;SDS011;1608;50.860;13.466;2023-04-25T04:29:00;15.03;;;8.10;;
3193;SDS011;1608;50.860;13.466;2023-04-25T04:31:28;11.80;;;7.33;;
3193;SDS011;1608;50.860;13.466;2023-04-25T04:33:55;17.00;;;8.80;;
3193;SDS011;1608;50.860;13.466;2023-04-25T04:36:22;10.77;;;8.43;;
3193;SDS011;1608;50.860;13.466;2023-04-25T04:38:51;10.50;;;8.10;;
3193;SDS011;1608;50.860;13.466;2023-04-25T04:41:19;10.67;;;7.40;;
3193;SDS011;1608;50.860;13.466;2023-04-25T04:43:45;11.00;;;7.67;;
3193;SDS011;1608;50.860;13.466;2023-04-25T04:46:12;13.70;;;8.33;;
3193;SDS011;1608;50.860;13.466;2023-04-25T04:48:40;11.37;;;7.20;;
3193;SDS011;1608;50.860;13.466;2023-04-25T04:51:07;16.33;;;7.57;;
3193;SDS011;1608;50.860;13.466;2023-04-25T04:53:34;11.93;;;7.57;;
3193;SDS011;1608;50.860;13.466;2023-04-25T04:56:01;13.90;;;8.97;;
3193;SDS011;1608;50.860;13.466;2023-04-25T04:58:28;12.37;;;9.10;;
3193;SDS011;1608;50.860;13.466;2023-04-25T05:00:55;24.00;;;7.83;;
3193;SDS011;1608;50.860;13.466;2023-04-25T05:03:22;13.03;;;7.17;;
3193;SDS011;1608;50.860;13.466;2023-04-25T05:05:51;11.90;;;6.97;;
3193;SDS011;1608;50.860;13.466;2023-04-25T05:08:17;12.03;;;7.40;;
3193;SDS011;1608;50.860;13.466;2023-04-25T05:10:44;12.47;;;7.40;;
3193;SDS011;1608;50.860;13.466;2023-04-25T05:13:11;13.77;;;7.73;;
3193;SDS011;1608;50.860;13.466;2023-04-25T05:15:38;12.10;;;8.23;;
3193;SDS011;1608;50.860;13.466;2023-04-25T05:18:05;11.47;;;7.60;;
3193;SDS011;1608;50.860;13.466;2023-04-25T05:20:31;8.83;;;6.83;;
3193;SDS011;1608;50.860;13.466;2023-04-25T05:23:00;8.93;;;6.60;;
3193;SDS011;1608;50.860;13.466;2023-04-25T05:25:26;13.40;;;7.60;;
3193;SDS011;1608;50.860;13.466;2023-04-25T05:27:53;12.47;;;7.87;;
3193;SDS011;1608;50.860;13.466;2023-04-25T05:30:21;8.80;;;7.07;;
3193;SDS011;1608;50.860;13.466;2023-04-25T05:32:48;10.47;;;7.87;;
3193;SDS011;1608;50.860;13.466;2023-04-25T05:35:15;11.80;;;7.90;;
3193;SDS011;1608;50.860;13.466;2023-04-25T05:37:42;10.10;;;7.40;;
3193;SDS011;1608;50.860;13.466;2023-04-25T05:40:10;14.00;;;7.53;;
3193;SDS011;1608;50.860;13.466;2023-04-25T05:42:37;11.23;;;7.47;;
3193;SDS011;1608;50.860;13.466;2023-04-25T05:45:05;11.30;;;7.37;;
3193;SDS011;1608;50.860;13.466;2023-04-25T05:47:32;10.40;;;6.70;;
3193;SDS011;1608;50.860;13.466;2023-04-25T05:49:59;13.27;;;6.60;;
3193;SDS011;1608;50.860;13.466;2023-04-25T05:52:25;10.97;;;7.40;;
3193;SDS011;1608;50.860;13.466;2023-04-25T05:54:52;7.83;;;6.57;;
3193;SDS011;1608;50.860;13.466;2023-04-25T05:57:21;6.73;;;6.00;;
3193;SDS011;1608;50.860;13.466;2023-04-25T05:59:49;10.27;;;6.90;;
3193;SDS011;1608;50.860;13.466;2023-04-25T06:02:16;10.27;;;6.83;;
3193;SDS011;1608;50.860;13.466;2023-04-25T06:04:43;9.17;;;6.80;;
3193;SDS011;1608;50.860;13.466;2023-04-25T06:07:10;10.37;;;8.03;;
3193;SDS011;1608;50.860;13.466;2023-04-25T06:09:38;10.13;;;6.53;;
3193;SDS011;1608;50.860;13.466;2023-04-25T06:12:05;8.27;;;6.30;;
3193;SDS011;1608;50.860;13.466;2023-04-25T06:14:33;7.40;;;6.67;;
3193;SDS011;1608;50.860;13.466;2023-04-25T06:17:01;9.43;;;6.67;;
3193;SDS011;1608;50.860;13.466;2023-04-25T06:19:31;8.20;;;6.83;;
3193;SDS011;1608;50.860;13.466;2023-04-25T06:21:58;7.10;;;6.23;;
3193;SDS011;1608;50.860;13.466;2023-04-25T06:24:25;9.83;;;7.63;;
3193;SDS011;1608;50.860;13.466;2023-04-25T06:26:51;8.50;;;6.13;;
3193;SDS011;1608;50.860;13.466;2023-04-25T06:29:18;8.27;;;6.40;;
3193;SDS011;1608;50.860;13.466;2023-04-25T06:31:46;7.97;;;6.67;;
3193;SDS011;1608;50.860;13.466;2023-04-25T06:34:13;10.07;;;6.53;;
3193;SDS011;1608;50.860;13.466;2023-04-25T06:36:40;12.73;;;6.43;;
3193;SDS011;1608;50.860;13.466;2023-04-25T06:39:07;13.73;;;5.73;;
3193;SDS011;1608;50.860;13.466;2023-04-25T06:41:34;8.60;;;5.40;;
3193;SDS011;1608;50.860;13.466;2023-04-25T06:44:01;7.53;;;6.20;;
3193;SDS011;1608;50.860;13.466;2023-04-25T06:46:28;8.13;;;5.90;;
3193;SDS011;1608;50.860;13.466;2023-04-25T06:48:56;6.70;;;4.87;;
3193;SDS011;1608;50.860;13.466;2023-04-25T06:51:23;8.00;;;6.13;;
3193;SDS011;1608;50.860;13.466;2023-04-25T06:53:53;11.03;;;6.03;;
3193;SDS011;1608;50.860;13.466;2023-04-25T06:56:20;6.20;;;5.60;;
3193;SDS011;1608;50.860;13.466;2023-04-25T06:58:48;7.07;;;5.83;;
3193;SDS011;1608;50.860;13.466;2023-04-25T07:01:15;8.27;;;5.53;;
3193;SDS011;1608;50.860;13.466;2023-04-25T07:03:41;15.43;;;7.37;;
3193;SDS011;1608;50.860;13.466;2023-04-25T07:06:10;8.93;;;6.87;;
3193;SDS011;1608;50.860;13.466;2023-04-25T07:08:36;8.60;;;5.30;;
3193;SDS011;1608;50.860;13.466;2023-04-25T07:11:03;8.67;;;7.43;;
3193;SDS011;1608;50.860;13.466;2023-04-25T07:13:30;7.80;;;6.50;;
3193;SDS011;1608;50.860;13.466;2023-04-25T07:15:57;10.57;;;5.80;;
3193;SDS011;1608;50.860;13.466;2023-04-25T07:18:24;9.20;;;6.87;;
3193;SDS011;1608;50.860;13.466;2023-04-25T07:20:51;9.30;;;5.60;;
3193;SDS011;1608;50.860;13.466;2023-04-25T07:23:19;17.97;;;6.80;;
3193;SDS011;1608;50.860;13.466;2023-04-25T07:25:46;9.13;;;5.97;;
3193;SDS011;1608;50.860;13.466;2023-04-25T07:28:13;8.40;;;6.23;;
3193;SDS011;1608;50.860;13.466;2023-04-25T07:30:40;10.07;;;6.30;;
3193;SDS011;1608;50.860;13.466;2023-04-25T07:33:06;10.10;;;6.90;;
3193;SDS011;1608;50.860;13.466;2023-04-25T07:35:33;6.70;;;5.77;;
3193;SDS011;1608;50.860;13.466;2023-04-25T07:38:01;8.53;;;7.73;;
3193;SDS011;1608;50.860;13.466;2023-04-25T07:40:29;8.27;;;5.87;;
3193;SDS011;1608;50.860;13.466;2023-04-25T07:42:56;9.93;;;5.90;;
3193;SDS011;1608;50.860;13.466;2023-04-25T07:45:23;9.93;;;6.80;;
3193;SDS011;1608;50.860;13.466;2023-04-25T07:47:49;7.17;;;5.83;;
3193;SDS011;1608;50.860;13.466;2023-04-25T07:50:16;8.60;;;7.00;;
3193;SDS011;1608;50.860;13.466;2023-04-25T07:52:43;8.70;;;6.10;;
3193;SDS011;1608;50.860;13.466;2023-04-25T07:55:10;8.13;;;6.20;;
3193;SDS011;1608;50.860;13.466;2023-04-25T07:57:38;9.40;;;6.77;;
3193;SDS011;1608;50.860;13.466;2023-04-25T08:00:05;18.40;;;6.20;;
3193;SDS011;1608;50.860;13.466;2023-04-25T08:02:34;7.53;;;5.33;;
3193;SDS011;1608;50.860;13.466;2023-04-25T08:05:01;11.60;;;6.87;;
3193;SDS011;1608;50.860;13.466;2023-04-25T08:07:28;10.10;;;5.40;;
3193;SDS011;1608;50.860;13.466;2023-04-25T08:09:55;8.60;;;5.80;;
3193;SDS011;1608;50.860;13.466;2023-04-25T08:12:22;9.07;;;4.90;;
3193;SDS011;1608;50.860;13.466;2023-04-25T08:14:50;28.53;;;18.80;;
3193;SDS011;1608;50.860;13.466;2023-04-25T08:17:17;7.67;;;5.60;;
3193;SDS011;1608;50.860;13.466;2023-04-25T08:19:43;9.33;;;5.73;;
3193;SDS011;1608;50.860;13.466;2023-04-25T08:22:10;8.83;;;6.23;;
3193;SDS011;1608;50.860;13.466;2023-04-25T08:24:37;9.17;;;6.57;;
3193;SDS011;1608;50.860;13.466;2023-04-25T08:27:04;9.77;;;8.23;;
3193;SDS011;1608;50.860;13.466;2023-04-25T08:29:31;9.13;;;6.07;;
3193;SDS011;1608;50.860;13.466;2023-04-25T08:32:00;10.73;;;8.03;;
3193;SDS011;1608;50.860;13.466;2023-04-25T08:34:26;11.50;;;7.40;;
3193;SDS011;1608;50.860;13.466;2023-04-25T08:36:53;9.30;;;6.50;;
3193;SDS011;1608;50.860;13.466;2023-04-25T08:39:20;10.47;;;6.50;;
3193;SDS011;1608;50.860;13.466;2023-04-25T08:41:47;9.30;;;5.77;;
3193;SDS011;1608;50.860;13.466;2023-04-25T08:44:14;13.47;;;5.77;;
3193;SDS011;1608;50.860;13.466;2023-04-25T08:46:42;10.90;;;6.30;;
3193;SDS011;1608;50.860;13.466;2023-04-25T08:49:15;7.20;;;5.40;;
3193;SDS011;1608;50.860;13.466;2023-04-25T08:51:44;10.80;;;5.80;;
3193;SDS011;1608;50.860;13.466;2023-04-25T08:54:13;6.10;;;4.97;;
3193;SDS011;1608;50.860;13.466;2023-04-25T08:56:41;5.30;;;3.93;;
3193;SDS011;1608;50.860;13.466;2023-04-25T08:59:11;6.53;;;4.93;;
3193;SDS011;1608;50.860;13.466;2023-04-25T09:01:38;7.20;;;4.63;;
3193;SDS011;1608;50.860;13.466;2023-04-25T09:04:05;10.60;;;6.70;;
3193;SDS011;1608;50.860;13.466;2023-04-25T09:06:33;7.53;;;5.10;;
3193;SDS011;1608;50.860;13.466;2023-04-25T09:09:01;6.27;;;4.40;;
3193;SDS011;1608;50.860;13.466;2023-04-25T09:11:30;5.63;;;4.30;;
3193;SDS011;1608;50.860;13.466;2023-04-25T09:14:10;4.40;;;3.57;;
3193;SDS011;1608;50.860;13.466;2023-04-25T09:16:52;5.83;;;4.53;;
3193;SDS011;1608;50.860;13.466;2023-04-25T09:19:24;6.47;;;5.30;;
3193;SDS011;1608;50.860;13.466;2023-04-25T09:21:55;6.10;;;4.37;;
3193;SDS011;1608;50.860;13.466;2023-04-25T09:24:32;7.30;;;6.50;;
3193;SDS011;1608;50.860;13.466;2023-04-25T09:27:03;11.20;;;6.90;;
3193;SDS011;1608;50.860;13.466;2023-04-25T09:29:31;7.40;;;4.83;;
3193;SDS011;1608;50.860;13.466;2023-04-25T09:32:11;8.10;;;5.23;;
3193;SDS011;1608;50.860;13.466;2023-04-25T09:34:43;11.97;;;5.60;;
3193;SDS011;1608;50.860;13.466;2023-04-25T09:37:16;5.40;;;4.80;;
3193;SDS011;1608;50.860;13.466;2023-04-25T09:39:44;8.03;;;5.77;;
3193;SDS011;1608;50.860;13.466;2023-04-25T09:42:11;7.60;;;4.70;;
3193;SDS011;1608;50.860;13.466;2023-04-25T09:44:41;8.40;;;6.27;;
3193;SDS011;1608;50.860;13.466;2023-04-25T09:47:10;15.10;;;7.27;;
3193;SDS011;1608;50.860;13.466;2023-04-25T09:49:38;8.60;;;6.93;;
3193;SDS011;1608;50.860;13.466;2023-04-25T09:52:07;8.00;;;5.20;;
3193;SDS011;1608;50.860;13.466;2023-04-25T09:54:36;8.90;;;5.97;;
3193;SDS011;1608;50.860;13.466;2023-04-25T09:57:04;5.93;;;5.03;;
3193;SDS011;1608;50.860;13.466;2023-04-25T09:59:38;11.50;;;5.30;;
3193;SDS011;1608;50.860;13.466;2023-04-25T10:02:08;12.50;;;5.70;;
3193;SDS011;1608;50.860;13.466;2023-04-25T10:04:36;10.10;;;5.37;;
3193;SDS011;1608;50.860;13.466;2023-04-25T10:07:05;7.07;;;5.03;;
3193;SDS011;1608;50.860;13.466;2023-04-25T10:09:34;12.63;;;6.20;;
3193;SDS011;1608;50.860;13.466;2023-04-25T10:12:05;8.43;;;6.40;;
3193;SDS011;1608;50.860;13.466;2023-04-25T10:14:33;13.10;;;6.30;;
3193;SDS011;1608;50.860;13.466;2023-04-25T10:17:00;9.10;;;7.00;;
3193;SDS011;1608;50.860;13.466;2023-04-25T10:19:27;13.30;;;6.47;;
3193;SDS011;1608;50.860;13.466;2023-04-25T10:21:56;12.80;;;7.00;;
3193;SDS011;1608;50.860;13.466;2023-04-25T10:24:29;8.33;;;6.47;;
3193;SDS011;1608;50.860;13.466;2023-04-25T10:26:58;10.93;;;5.97;;
3193;SDS011;1608;50.860;13.466;2023-04-25T10:29:26;15.50;;;10.13;;
3193;SDS011;1608;50.860;13.466;2023-04-25T10:31:53;19.53;;;8.77;;
3193;SDS011;1608;50.860;13.466;2023-04-25T10:34:23;10.50;;;6.50;;
3193;SDS011;1608;50.860;13.466;2023-04-25T10:37:03;9.37;;;6.83;;
3193;SDS011;1608;50.860;13.466;2023-04-25T10:39:32;10.80;;;7.20;;
3193;SDS011;1608;50.860;13.466;2023-04-25T10:42:01;11.57;;;8.97;;
3193;SDS011;1608;50.860;13.466;2023-04-25T10:44:29;12.10;;;7.53;;
3193;SDS011;1608;50.860;13.466;2023-04-25T10:46:57;10.20;;;6.93;;
3193;SDS011;1608;50.860;13.466;2023-04-25T10:49:28;10.67;;;8.30;;
3193;SDS011;1608;50.860;13.466;2023-04-25T10:54:51;6.47;;;4.53;;
3193;SDS011;1608;50.860;13.466;2023-04-25T10:57:27;13.87;;;6.90;;
3193;SDS011;1608;50.860;13.466;2023-04-25T11:00:04;12.47;;;8.07;;
3193;SDS011;1608;50.860;13.466;2023-04-25T11:02:36;11.07;;;7.60;;
3193;SDS011;1608;50.860;13.466;2023-04-25T11:05:04;9.83;;;6.90;;
3193;SDS011;1608;50.860;13.466;2023-04-25T11:07:34;7.77;;;6.73;;
3193;SDS011;1608;50.860;13.466;2023-04-25T11:10:09;11.83;;;8.20;;
3193;SDS011;1608;50.860;13.466;2023-04-25T11:12:38;11.60;;;9.23;;
3193;SDS011;1608;50.860;13.466;2023-04-25T11:15:06;10.50;;;7.90;;
3193;SDS011;1608;50.860;13.466;2023-04-25T11:17:33;11.50;;;9.00;;
3193;SDS011;1608;50.860;13.466;2023-04-25T11:20:00;18.73;;;12.03;;
3193;SDS011;1608;50.860;13.466;2023-04-25T11:22:31;21.30;;;11.57;;
3193;SDS011;1608;50.860;13.466;2023-04-25T11:25:04;20.13;;;14.00;;
3193;SDS011;1608;50.860;13.466;2023-04-25T11:27:32;19.53;;;13.07;;
3193;SDS011;1608;50.860;13.466;2023-04-25T11:30:10;23.70;;;13.47;;
3193;SDS011;1608;50.860;13.466;2023-04-25T11:32:39;22.57;;;15.13;;
3193;SDS011;1608;50.860;13.466;2023-04-25T11:35:07;18.80;;;14.53;;
3193;SDS011;1608;50.860;13.466;2023-04-25T11:37:34;21.20;;;15.17;;
3193;SDS011;1608;50.860;13.466;2023-04-25T11:40:01;21.57;;;15.73;;
3193;SDS011;1608;50.860;13.466;2023-04-25T11:42:30;20.37;;;13.90;;
3193;SDS011;1608;50.860;13.466;2023-04-25T11:44:57;21.57;;;13.73;;
3193;SDS011;1608;50.860;13.466;2023-04-25T11:50:03;21.60;;;11.20;;
3193;SDS011;1608;50.860;13.466;2023-04-25T11:52:36;13.17;;;6.50;;
3193;SDS011;1608;50.860;13.466;2023-04-25T11:55:04;11.90;;;8.50;;
3193;SDS011;1608;50.860;13.466;2023-04-25T11:57:32;12.70;;;8.90;;
3193;SDS011;1608;50.860;13.466;2023-04-25T12:00:05;8.33;;;5.90;;
3193;SDS011;1608;50.860;13.466;2023-04-25T12:02:34;11.93;;;5.77;;
3193;SDS011;1608;50.860;13.466;2023-04-25T12:05:03;10.17;;;5.53;;
3193;SDS011;1608;50.860;13.466;2023-04-25T12:07:33;8.63;;;5.20;;
3193;SDS011;1608;50.860;13.466;2023-04-25T12:10:03;6.23;;;4.40;;
3193;SDS011;1608;50.860;13.466;2023-04-25T12:12:32;12.40;;;5.07;;
3193;SDS011;1608;50.860;13.466;2023-04-25T12:15:07;8.83;;;5.17;;
3193;SDS011;1608;50.860;13.466;2023-04-25T12:17:36;8.60;;;5.60;;
3193;SDS011;1608;50.860;13.466;2023-04-25T12:20:07;7.10;;;5.27;;
3193;SDS011;1608;50.860;13.466;2023-04-25T12:22:35;8.60;;;4.37;;
3193;SDS011;1608;50.860;13.466;2023-04-25T12:25:02;9.50;;;5.10;;
3193;SDS011;1608;50.860;13.466;2023-04-25T12:27:30;7.20;;;4.87;;
3193;SDS011;1608;50.860;13.466;2023-04-25T12:29:58;6.33;;;5.20;;
3193;SDS011;1608;50.860;13.466;2023-04-25T12:32:26;8.30;;;5.50;;
3193;SDS011;1608;50.860;13.466;2023-04-25T12:34:53;9.50;;;5.00;;
3193;SDS011;1608;50.860;13.466;2023-04-25T12:37:22;7.37;;;4.60;;
3193;SDS011;1608;50.860;13.466;2023-04-25T12:39:48;7.07;;;4.67;;
3193;SDS011;1608;50.860;13.466;2023-04-25T12:42:15;11.67;;;4.00;;
3193;SDS011;1608;50.860;13.466;2023-04-25T12:44:42;11.03;;;4.97;;
3193;SDS011;1608;50.860;13.466;2023-04-25T12:47:09;12.90;;;5.10;;
3193;SDS011;1608;50.860;13.466;2023-04-25T12:49:36;8.53;;;4.40;;
3193;SDS011;1608;50.860;13.466;2023-04-25T12:52:02;8.97;;;5.07;;
3193;SDS011;1608;50.860;13.466;2023-04-25T12:54:31;20.63;;;4.70;;
3193;SDS011;1608;50.860;13.466;2023-04-25T12:56:58;11.60;;;5.40;;
3193;SDS011;1608;50.860;13.466;2023-04-25T12:59:27;10.30;;;3.93;;
3193;SDS011;1608;50.860;13.466;2023-04-25T13:01:54;13.13;;;5.50;;
3193;SDS011;1608;50.860;13.466;2023-04-25T13:04:21;9.10;;;5.00;;
3193;SDS011;1608;50.860;13.466;2023-04-25T13:06:48;8.43;;;5.07;;
3193;SDS011;1608;50.860;13.466;2023-04-25T13:09:15;12.80;;;5.40;;
3193;SDS011;1608;50.860;13.466;2023-04-25T13:11:43;8.13;;;5.40;;
3193;SDS011;1608;50.860;13.466;2023-04-25T13:14:10;18.60;;;7.87;;
3193;SDS011;1608;50.860;13.466;2023-04-25T13:16:37;14.07;;;6.30;;
3193;SDS011;1608;50.860;13.466;2023-04-25T13:19:04;16.23;;;5.67;;
3193;SDS011;1608;50.860;13.466;2023-04-25T13:21:33;6.00;;;5.00;;
3193;SDS011;1608;50.860;13.466;2023-04-25T13:24:00;13.57;;;5.53;;
3193;SDS011;1608;50.860;13.466;2023-04-25T13:26:26;8.90;;;4.00;;
3193;SDS011;1608;50.860;13.466;2023-04-25T13:28:55;13.83;;;8.73;;
3193;SDS011;1608;50.860;13.466;2023-04-25T13:31:22;5.93;;;4.63;;
3193;SDS011;1608;50.860;13.466;2023-04-25T13:33:49;11.90;;;6.07;;
3193;SDS011;1608;50.860;13.466;2023-04-25T13:36:16;14.27;;;5.77;;
3193;SDS011;1608;50.860;13.466;2023-04-25T13:38:43;22.90;;;5.90;;
3193;SDS011;1608;50.860;13.466;2023-04-25T13:41:12;14.73;;;6.67;;
3193;SDS011;1608;50.860;13.466;2023-04-25T13:43:43;11.30;;;5.97;;
3193;SDS011;1608;50.860;13.466;2023-04-25T13:46:13;9.57;;;6.60;;
3193;SDS011;1608;50.860;13.466;2023-04-25T13:48:41;8.43;;;6.77;;
3193;SDS011;1608;50.860;13.466;2023-04-25T13:51:12;12.20;;;6.40;;
3193;SDS011;1608;50.860;13.466;2023-04-25T13:53:40;10.23;;;6.43;;
3193;SDS011;1608;50.860;13.466;2023-04-25T13:56:07;18.10;;;6.27;;
3193;SDS011;1608;50.860;13.466;2023-04-25T13:58:34;15.67;;;6.87;;
3193;SDS011;1608;50.860;13.466;2023-04-25T14:01:01;11.60;;;8.23;;
3193;SDS011;1608;50.860;13.466;2023-04-25T14:03:29;12.17;;;6.80;;
3193;SDS011;1608;50.860;13.466;2023-04-25T14:05:56;10.77;;;6.73;;
3193;SDS011;1608;50.860;13.466;2023-04-25T14:08:23;11.23;;;6.63;;
3193;SDS011;1608;50.860;13.466;2023-04-25T14:10:50;13.37;;;7.67;;
3193;SDS011;1608;50.860;13.466;2023-04-25T14:13:17;11.73;;;6.90;;
3193;SDS011;1608;50.860;13.466;2023-04-25T14:15:44;11.97;;;6.17;;
3193;SDS011;1608;50.860;13.466;2023-04-25T14:18:11;13.50;;;7.57;;
3193;SDS011;1608;50.860;13.466;2023-04-25T14:20:39;11.43;;;6.90;;
3193;SDS011;1608;50.860;13.466;2023-04-25T14:23:06;11.00;;;6.70;;
3193;SDS011;1608;50.860;13.466;2023-04-25T14:25:33;11.13;;;7.63;;
3193;SDS011;1608;50.860;13.466;2023-04-25T14:28:01;13.53;;;7.60;;
3193;SDS011;1608;50.860;13.466;2023-04-25T14:30:28;15.10;;;6.80;;
3193;SDS011;1608;50.860;13.466;2023-04-25T14:32:55;14.70;;;7.63;;
3193;SDS011;1608;50.860;13.466;2023-04-25T14:35:21;17.30;;;8.90;;
3193;SDS011;1608;50.860;13.466;2023-04-25T14:37:49;20.67;;;8.00;;
3193;SDS011;1608;50.860;13.466;2023-04-25T14:40:16;14.00;;;10.10;;
3193;SDS011;1608;50.860;13.466;2023-04-25T14:42:47;17.87;;;8.27;;
3193;SDS011;1608;50.860;13.466;2023-04-25T14:45:14;13.93;;;8.50;;
3193;SDS011;1608;50.860;13.466;2023-04-25T14:47:40;15.43;;;9.30;;
3193;SDS011;1608;50.860;13.466;2023-04-25T14:50:07;14.20;;;7.43;;
3193;SDS011;1608;50.860;13.466;2023-04-25T14:52:35;11.00;;;8.90;;
3193;SDS011;1608;50.860;13.466;2023-04-25T14:55:03;14.73;;;7.57;;
3193;SDS011;1608;50.860;13.466;2023-04-25T14:57:30;14.10;;;8.20;;
3193;SDS011;1608;50.860;13.466;2023-04-25T14:59:58;14.37;;;8.70;;
3193;SDS011;1608;50.860;13.466;2023-04-25T15:02:25;13.83;;;8.70;;